createdAt,value
2023-05-18T00:02:16.418Z,18.35
2023-05-18T00:04:44.329Z,18.26
2023-05-18T00:07:11.557Z,18.22
2023-05-18T00:09:38.531Z,18.18
2023-05-18T00:12:06.484Z,18.15
2023-05-18T00:14:33.651Z,18.10
2023-05-18T00:17:03.638Z,18.01
2023-05-18T00:19:31.781Z,17.97
2023-05-18T00:21:58.985Z,17.93
2023-05-18T00:24:26.206Z,17.85
2023-05-18T00:26:53.339Z,17.81
2023-05-18T00:29:20.536Z,17.76
2023-05-18T00:31:47.960Z,17.70
2023-05-18T00:34:15.799Z,17.64
2023-05-18T00:36:43.054Z,17.59
2023-05-18T00:39:10.557Z,17.52
2023-05-18T00:41:37.770Z,17.47
2023-05-18T00:44:05.219Z,17.50
2023-05-18T00:46:33.177Z,17.51
2023-05-18T00:49:04.677Z,17.43
2023-05-18T00:51:33.031Z,17.38
2023-05-18T00:54:00.450Z,17.33
2023-05-18T00:56:27.612Z,17.29
2023-05-18T00:58:55.955Z,17.25
2023-05-18T01:01:28.508Z,17.20
2023-05-18T01:04:02.536Z,17.18
2023-05-18T01:06:41.321Z,17.13
2023-05-18T01:09:09.478Z,17.10
2023-05-18T01:11:38.151Z,17.09
2023-05-18T01:14:10.579Z,17.04
2023-05-18T01:16:58.292Z,17.00
2023-05-18T01:19:45.227Z,16.96
2023-05-18T01:22:31.392Z,16.96
2023-05-18T01:24:58.930Z,16.94
2023-05-18T01:27:26.073Z,16.90
2023-05-18T01:29:53.174Z,16.85
2023-05-18T01:32:21.622Z,16.79
2023-05-18T01:34:48.671Z,16.75
2023-05-18T01:37:15.713Z,16.71
2023-05-18T01:39:43.326Z,16.66
2023-05-18T01:42:14.579Z,16.66
2023-05-18T01:44:54.255Z,16.63
2023-05-18T01:47:21.520Z,16.63
2023-05-18T01:49:51.935Z,16.61
2023-05-18T01:52:20.727Z,16.56
2023-05-18T01:54:50.788Z,16.50
2023-05-18T01:57:18.423Z,16.47
2023-05-18T01:59:45.428Z,16.45
2023-05-18T02:02:12.618Z,16.47
2023-05-18T02:04:39.768Z,16.47
2023-05-18T02:07:07.596Z,16.51
2023-05-18T02:09:34.804Z,16.53
2023-05-18T02:12:02.007Z,16.56
2023-05-18T02:14:29.125Z,16.61
2023-05-18T02:16:57.809Z,16.62
2023-05-18T02:19:25.707Z,16.64
2023-05-18T02:21:54.028Z,16.65
2023-05-18T02:24:22.971Z,16.72
2023-05-18T02:26:50.135Z,16.76
2023-05-18T02:29:17.662Z,16.87
2023-05-18T02:31:44.843Z,17.08
2023-05-18T02:34:12.345Z,17.39
2023-05-18T02:36:42.883Z,17.72
2023-05-18T02:39:10.712Z,18.03
2023-05-18T02:41:37.840Z,18.35
2023-05-18T02:44:05.291Z,18.65
2023-05-18T02:46:33.053Z,18.98
2023-05-18T02:49:00.394Z,19.31
2023-05-18T02:51:27.554Z,19.63
2023-05-18T02:53:54.813Z,19.96
2023-05-18T02:56:22.587Z,20.29
2023-05-18T02:58:58.645Z,20.63
2023-05-18T03:01:38.228Z,21.05
2023-05-18T03:04:05.481Z,21.42
2023-05-18T03:06:32.975Z,21.77
2023-05-18T03:09:00.159Z,22.16
2023-05-18T03:11:33.354Z,22.46
2023-05-18T03:14:00.795Z,22.80
2023-05-18T03:16:28.842Z,23.11
2023-05-18T03:18:59.391Z,23.35
2023-05-18T03:21:34.080Z,23.64
2023-05-18T03:24:02.433Z,23.91
2023-05-18T03:26:31.278Z,24.32
2023-05-18T03:28:58.716Z,24.73
2023-05-18T03:31:26.060Z,25.10
2023-05-18T03:33:53.742Z,25.47
2023-05-18T03:36:22.805Z,25.80
2023-05-18T03:38:50.058Z,26.06
2023-05-18T03:41:17.166Z,26.26
2023-05-18T03:43:44.313Z,26.34
2023-05-18T03:46:11.874Z,26.66
2023-05-18T03:48:39.280Z,27.03
2023-05-18T03:51:06.832Z,27.40
2023-05-18T03:53:36.449Z,27.63
2023-05-18T03:56:03.619Z,27.88
2023-05-18T03:58:30.780Z,28.06
2023-05-18T04:00:58.402Z,28.28
2023-05-18T04:03:27.369Z,28.51
2023-05-18T04:05:56.040Z,28.88
2023-05-18T04:08:25.835Z,29.32
2023-05-18T04:10:53.184Z,29.73
2023-05-18T04:13:20.391Z,29.90
2023-05-18T04:15:47.924Z,30.00
2023-05-18T04:18:15.130Z,30.07
2023-05-18T04:20:42.935Z,30.10
2023-05-18T04:23:10.470Z,30.40
2023-05-18T04:25:39.617Z,30.66
2023-05-18T04:28:08.615Z,30.82
2023-05-18T04:30:37.687Z,31.05
2023-05-18T04:33:07.024Z,31.31
2023-05-18T04:35:34.269Z,31.50
2023-05-18T04:38:02.896Z,31.74
2023-05-18T04:40:34.603Z,31.81
2023-05-18T04:43:03.658Z,31.95
2023-05-18T04:45:34.612Z,31.95
2023-05-18T04:48:02.381Z,31.76
2023-05-18T04:50:29.986Z,31.64
2023-05-18T04:52:58.482Z,31.48
2023-05-18T04:55:28.665Z,31.63
2023-05-18T04:58:00.937Z,31.96
2023-05-18T05:00:29.485Z,32.13
2023-05-18T05:02:57.294Z,32.44
2023-05-18T05:05:25.181Z,31.84
2023-05-18T05:07:52.909Z,31.99
2023-05-18T05:10:20.414Z,32.06
2023-05-18T05:12:49.458Z,32.22
2023-05-18T05:15:17.373Z,32.38
2023-05-18T05:17:44.737Z,32.59
2023-05-18T05:20:12.084Z,32.70
2023-05-18T05:22:39.374Z,32.97
2023-05-18T05:25:09.657Z,33.27
2023-05-18T05:27:36.861Z,33.43
2023-05-18T05:30:05.060Z,33.28
2023-05-18T05:32:36.324Z,33.36
2023-05-18T05:35:04.188Z,33.27
2023-05-18T05:37:31.956Z,33.40
2023-05-18T05:39:59.669Z,33.74
2023-05-18T05:42:28.116Z,33.98
2023-05-18T05:44:55.383Z,34.33
2023-05-18T05:47:23.107Z,34.27
2023-05-18T05:49:50.902Z,34.48
2023-05-18T05:52:18.236Z,34.87
2023-05-18T05:54:45.395Z,34.92
2023-05-18T05:57:12.595Z,34.84
2023-05-18T05:59:39.684Z,34.83
2023-05-18T06:02:07.037Z,34.53
2023-05-18T06:04:34.617Z,34.54
2023-05-18T06:07:02.196Z,34.47
2023-05-18T06:09:29.980Z,34.29
2023-05-18T06:11:57.486Z,33.95
2023-05-18T06:14:26.336Z,33.86
2023-05-18T06:16:54.342Z,33.97
2023-05-18T06:19:21.690Z,34.04
2023-05-18T06:21:49.777Z,34.18
2023-05-18T06:24:17.401Z,34.48
2023-05-18T06:26:55.661Z,34.54
2023-05-18T06:29:41.531Z,34.46
2023-05-18T06:32:17.550Z,34.68
2023-05-18T06:34:52.958Z,34.70
2023-05-18T06:37:21.649Z,34.41
2023-05-18T06:39:49.037Z,34.97
2023-05-18T06:42:16.330Z,34.96
2023-05-18T06:44:52.234Z,34.57
2023-05-18T06:47:22.864Z,34.78
2023-05-18T06:49:50.364Z,34.74
2023-05-18T06:52:17.537Z,34.80
2023-05-18T06:54:45.365Z,35.05
2023-05-18T06:57:12.683Z,34.73
2023-05-18T06:59:41.110Z,34.76
2023-05-18T07:02:08.314Z,34.59
2023-05-18T07:04:35.792Z,35.01
2023-05-18T07:07:03.121Z,35.53
2023-05-18T07:09:30.329Z,35.97
2023-05-18T07:11:57.513Z,35.67
2023-05-18T07:14:24.624Z,35.83
2023-05-18T07:16:52.051Z,35.88
2023-05-18T07:19:19.249Z,35.97
2023-05-18T07:21:46.703Z,36.11
2023-05-18T07:24:13.852Z,35.43
2023-05-18T07:26:41.250Z,35.27
2023-05-18T07:29:08.667Z,35.43
2023-05-18T07:31:39.378Z,35.70
2023-05-18T07:34:06.860Z,35.99
2023-05-18T07:36:34.392Z,36.18
2023-05-18T07:39:01.856Z,36.27
2023-05-18T07:41:29.399Z,36.35
2023-05-18T07:43:57.121Z,36.57
2023-05-18T07:46:24.309Z,36.77
2023-05-18T07:48:51.771Z,36.64
2023-05-18T07:51:19.133Z,36.50
2023-05-18T07:53:46.873Z,36.65
2023-05-18T07:56:14.549Z,36.60
2023-05-18T07:58:41.922Z,36.86
2023-05-18T08:01:09.011Z,36.84
2023-05-18T08:03:36.668Z,36.56
2023-05-18T08:06:04.150Z,36.48
2023-05-18T08:08:31.350Z,36.55
2023-05-18T08:11:43.958Z,36.23
2023-05-18T08:14:11.219Z,36.06
2023-05-18T08:16:38.447Z,35.81
2023-05-18T08:19:47.644Z,35.56
2023-05-18T08:22:15.249Z,35.34
2023-05-18T08:24:42.537Z,35.67
2023-05-18T08:27:11.476Z,35.63
2023-05-18T08:29:38.984Z,35.57
2023-05-18T08:32:07.351Z,35.69
2023-05-18T08:34:34.790Z,35.29
2023-05-18T08:37:02.023Z,35.16
2023-05-18T08:39:32.143Z,35.08
2023-05-18T08:42:04.084Z,34.86
2023-05-18T08:44:41.297Z,34.90
2023-05-18T08:47:09.639Z,34.69
2023-05-18T08:49:37.002Z,35.01
2023-05-18T08:52:04.815Z,35.51
2023-05-18T08:54:32.491Z,35.58
2023-05-18T08:56:59.703Z,34.94
2023-05-18T08:59:27.623Z,35.10
2023-05-18T09:01:55.426Z,35.33
2023-05-18T09:04:22.945Z,35.10
2023-05-18T09:06:50.569Z,35.08
2023-05-18T09:09:18.233Z,34.63
2023-05-18T09:11:45.596Z,34.73
2023-05-18T09:14:54.259Z,34.81
2023-05-18T09:17:24.221Z,34.19
2023-05-18T09:19:51.513Z,34.44
2023-05-18T09:22:18.667Z,34.39
2023-05-18T09:24:45.947Z,34.38
2023-05-18T09:27:13.168Z,34.50
2023-05-18T09:29:53.768Z,34.57
2023-05-18T09:32:22.287Z,33.46
2023-05-18T09:34:49.632Z,33.18
2023-05-18T09:37:17.919Z,32.97
2023-05-18T09:39:45.599Z,32.88
2023-05-18T09:42:12.966Z,33.32
2023-05-18T09:44:40.379Z,33.12
2023-05-18T09:47:11.448Z,33.52
2023-05-18T09:49:39.017Z,33.50
2023-05-18T09:52:09.840Z,32.84
2023-05-18T09:54:37.978Z,32.94
2023-05-18T09:59:37.035Z,32.15
2023-05-18T10:02:09.292Z,31.89
2023-05-18T10:04:40.602Z,31.89
2023-05-18T10:07:14.809Z,32.10
2023-05-18T10:09:42.606Z,32.26
2023-05-18T10:12:17.285Z,32.43
2023-05-18T10:14:45.042Z,32.55
2023-05-18T10:17:17.082Z,32.36
2023-05-18T10:19:45.121Z,31.86
2023-05-18T10:22:12.612Z,31.56
2023-05-18T10:24:40.015Z,31.29
2023-05-18T10:27:08.166Z,31.46
2023-05-18T10:29:38.449Z,31.61
2023-05-18T10:32:07.885Z,31.66
2023-05-18T10:34:35.604Z,31.63
2023-05-18T10:37:05.819Z,31.47
2023-05-18T10:39:34.460Z,31.45
2023-05-18T10:42:01.670Z,31.46
2023-05-18T10:44:29.273Z,31.86
2023-05-18T10:46:56.722Z,31.95
2023-05-18T10:49:25.509Z,31.87
2023-05-18T10:51:53.272Z,31.67
2023-05-18T10:54:20.489Z,31.40
2023-05-18T10:56:48.403Z,30.76
2023-05-18T10:59:15.601Z,30.34
2023-05-18T11:01:42.896Z,30.27
2023-05-18T11:04:10.210Z,30.22
2023-05-18T11:06:37.543Z,30.22
2023-05-18T11:09:04.910Z,30.31
2023-05-18T11:11:50.246Z,30.42
2023-05-18T11:14:17.576Z,30.26
2023-05-18T11:16:44.882Z,30.76
2023-05-18T11:19:12.556Z,30.96
2023-05-18T11:21:41.972Z,30.86
2023-05-18T11:24:19.036Z,30.89
2023-05-18T11:26:47.687Z,30.52
2023-05-18T11:29:18.778Z,30.59
2023-05-18T11:31:47.141Z,30.60
2023-05-18T11:34:33.647Z,30.41
2023-05-18T11:37:01.621Z,30.45
2023-05-18T11:39:28.805Z,30.53
2023-05-18T11:42:00.061Z,30.78
2023-05-18T11:44:30.466Z,30.99
2023-05-18T11:47:04.758Z,31.06
2023-05-18T11:49:54.195Z,31.23
2023-05-18T11:52:24.906Z,31.24
2023-05-18T11:54:53.274Z,30.94
2023-05-18T11:57:21.323Z,30.81
2023-05-18T11:59:49.001Z,30.53
2023-05-18T12:02:24.422Z,30.09
2023-05-18T12:04:53.311Z,30.06
2023-05-18T12:07:20.626Z,30.17
2023-05-18T12:09:48.008Z,30.36
2023-05-18T12:12:17.595Z,30.24
2023-05-18T12:14:45.532Z,29.89
2023-05-18T12:17:12.862Z,29.69
2023-05-18T12:19:44.699Z,29.56
2023-05-18T12:22:12.019Z,29.28
2023-05-18T12:24:40.006Z,29.36
2023-05-18T12:27:08.273Z,29.54
2023-05-18T12:29:37.948Z,29.67
2023-05-18T12:32:05.865Z,29.91
2023-05-18T12:34:33.179Z,30.09
2023-05-18T12:37:00.454Z,30.31
2023-05-18T12:39:28.948Z,30.36
2023-05-18T12:42:11.035Z,30.36
2023-05-18T12:44:38.866Z,30.28
2023-05-18T12:47:06.348Z,30.18
2023-05-18T12:49:37.551Z,30.07
2023-05-18T12:52:23.135Z,29.93
2023-05-18T12:54:55.763Z,29.98
2023-05-18T12:57:26.720Z,29.95
2023-05-18T12:59:54.550Z,30.14
2023-05-18T13:02:27.551Z,30.12
2023-05-18T13:05:04.340Z,30.06
2023-05-18T13:07:32.016Z,30.29
2023-05-18T13:10:05.194Z,30.36
2023-05-18T13:12:43.970Z,30.50
2023-05-18T13:15:12.148Z,30.30
2023-05-18T13:17:39.761Z,30.21
2023-05-18T13:20:16.182Z,29.94
2023-05-18T13:22:43.572Z,29.64
2023-05-18T13:25:10.867Z,29.66
2023-05-18T13:27:38.704Z,29.66
2023-05-18T13:30:07.192Z,29.46
2023-05-18T13:32:34.633Z,29.34
2023-05-18T13:35:01.864Z,29.01
2023-05-18T13:37:29.221Z,28.94
2023-05-18T13:39:56.461Z,29.05
2023-05-18T13:42:23.737Z,29.31
2023-05-18T13:44:51.284Z,29.30
2023-05-18T13:47:25.518Z,29.36
2023-05-18T13:49:55.291Z,29.13
2023-05-18T13:52:23.401Z,29.12
2023-05-18T13:54:51.588Z,29.25
2023-05-18T13:57:27.984Z,29.25
2023-05-18T13:59:55.381Z,28.84
2023-05-18T14:02:23.317Z,28.86
2023-05-18T14:04:50.532Z,29.02
2023-05-18T14:07:18.077Z,29.18
2023-05-18T14:09:45.402Z,29.11
2023-05-18T14:12:13.934Z,29.09
2023-05-18T14:14:41.585Z,28.85
2023-05-18T14:17:18.696Z,28.86
2023-05-18T14:19:50.033Z,28.63
2023-05-18T14:22:22.327Z,28.72
2023-05-18T14:24:49.727Z,28.77
2023-05-18T14:27:17.064Z,28.82
2023-05-18T14:29:44.390Z,29.01
2023-05-18T14:32:11.839Z,29.19
2023-05-18T14:34:39.167Z,29.25
2023-05-18T14:37:06.590Z,29.20
2023-05-18T14:39:34.440Z,29.31
2023-05-18T14:42:01.790Z,29.26
2023-05-18T14:44:29.290Z,29.38
2023-05-18T14:46:56.765Z,29.42
2023-05-18T14:49:24.023Z,29.50
2023-05-18T14:51:51.312Z,29.48
2023-05-18T14:54:19.704Z,29.49
2023-05-18T14:56:47.297Z,29.51
2023-05-18T14:59:14.689Z,29.68
2023-05-18T15:01:41.910Z,29.70
2023-05-18T15:04:09.646Z,29.68
2023-05-18T15:06:37.995Z,29.53
2023-05-18T15:09:06.636Z,29.51
2023-05-18T15:11:33.913Z,29.47
2023-05-18T15:14:01.463Z,29.33
2023-05-18T15:16:28.761Z,29.45
2023-05-18T15:18:56.758Z,29.36
2023-05-18T15:21:24.284Z,29.25
2023-05-18T15:23:51.639Z,29.14
2023-05-18T15:26:18.920Z,29.10
2023-05-18T15:28:47.722Z,29.09
2023-05-18T15:31:16.131Z,28.84
2023-05-18T15:33:43.997Z,28.80
2023-05-18T15:36:11.407Z,28.56
2023-05-18T15:38:38.680Z,28.36
2023-05-18T15:41:08.986Z,28.43
2023-05-18T15:43:37.090Z,28.42
2023-05-18T15:46:04.518Z,28.49
2023-05-18T15:48:32.167Z,28.42
2023-05-18T15:51:01.836Z,28.22
2023-05-18T15:53:29.302Z,28.20
2023-05-18T15:55:59.103Z,28.24
2023-05-18T15:58:27.018Z,28.18
2023-05-18T16:00:54.484Z,28.18
2023-05-18T16:03:21.875Z,28.21
2023-05-18T16:05:50.552Z,28.15
2023-05-18T16:08:17.873Z,27.81
2023-05-18T16:10:45.197Z,28.00
2023-05-18T16:13:12.944Z,27.96
2023-05-18T16:15:40.610Z,27.92
2023-05-18T16:18:08.048Z,27.80
2023-05-18T16:20:35.767Z,27.56
2023-05-18T16:23:03.250Z,27.42
2023-05-18T16:25:30.540Z,27.12
2023-05-18T16:27:57.881Z,27.01
2023-05-18T16:30:28.517Z,27.07
2023-05-18T16:32:56.585Z,26.97
2023-05-18T16:35:24.837Z,26.92
2023-05-18T16:37:52.220Z,26.93
2023-05-18T16:40:19.468Z,26.86
2023-05-18T16:42:47.738Z,26.68
2023-05-18T16:45:15.230Z,26.60
2023-05-18T16:47:44.658Z,26.56
2023-05-18T16:50:12.023Z,26.45
2023-05-18T16:52:39.365Z,26.48
2023-05-18T16:55:06.916Z,26.30
2023-05-18T16:57:34.462Z,26.21
2023-05-18T17:00:01.752Z,26.14
2023-05-18T17:02:29.359Z,26.15
2023-05-18T17:04:59.511Z,26.02
2023-05-18T17:07:26.917Z,25.91
2023-05-18T17:09:54.095Z,25.79
2023-05-18T17:12:21.318Z,25.81
2023-05-18T17:15:05.929Z,25.82
2023-05-18T17:17:33.280Z,25.60
2023-05-18T17:20:00.906Z,25.56
2023-05-18T17:22:31.650Z,25.57
2023-05-18T17:24:59.349Z,25.46
2023-05-18T17:27:26.652Z,25.40
2023-05-18T17:29:54.876Z,25.35
2023-05-18T17:32:22.624Z,25.28
2023-05-18T17:34:50.378Z,25.32
2023-05-18T17:37:19.776Z,25.22
2023-05-18T17:39:47.187Z,25.12
2023-05-18T17:42:20.716Z,25.07
2023-05-18T17:44:47.907Z,25.10
2023-05-18T17:47:15.199Z,25.16
2023-05-18T17:49:42.478Z,25.08
2023-05-18T17:52:09.670Z,25.02
2023-05-18T17:54:36.796Z,25.00
2023-05-18T17:57:03.965Z,24.97
2023-05-18T17:59:31.158Z,24.90
2023-05-18T18:02:01.705Z,24.89
2023-05-18T18:04:49.469Z,24.90
2023-05-18T18:07:16.966Z,24.85
2023-05-18T18:09:44.362Z,24.85
2023-05-18T18:12:18.105Z,24.86
2023-05-18T18:14:46.458Z,24.78
2023-05-18T18:17:13.774Z,24.79
2023-05-18T18:19:41.009Z,24.70
2023-05-18T18:22:08.089Z,24.76
2023-05-18T18:24:35.164Z,24.73
2023-05-18T18:27:02.262Z,24.74
2023-05-18T18:29:32.508Z,24.77
2023-05-18T18:32:03.861Z,24.67
2023-05-18T18:34:31.053Z,24.67
2023-05-18T18:36:59.219Z,24.68
2023-05-18T18:40:13.208Z,24.62
2023-05-18T18:42:51.657Z,24.50
2023-05-18T18:45:35.274Z,24.44
2023-05-18T18:48:03.218Z,24.32
2023-05-18T18:50:34.630Z,24.21
2023-05-18T18:53:02.008Z,24.11
2023-05-18T18:58:33.360Z,24.02
2023-05-18T19:02:10.384Z,23.95
2023-05-18T19:16:19.017Z,23.62
2023-05-18T19:18:49.869Z,23.54
2023-05-18T19:21:41.051Z,23.54
2023-05-18T19:24:14.459Z,23.48
2023-05-18T19:26:43.041Z,23.48
2023-05-18T19:29:13.889Z,23.45
2023-05-18T19:31:42.694Z,23.43
2023-05-18T19:34:16.227Z,23.45
2023-05-18T19:36:46.521Z,23.43
2023-05-18T19:39:39.255Z,23.42
2023-05-18T19:42:36.291Z,23.38
2023-05-18T19:45:07.538Z,23.38
2023-05-18T19:47:46.422Z,23.38
2023-05-18T19:50:14.238Z,23.35
2023-05-18T19:52:43.206Z,23.31
2023-05-18T19:55:14.051Z,23.30
2023-05-18T19:57:43.262Z,23.27
2023-05-18T20:00:11.449Z,23.25
2023-05-18T20:02:43.239Z,23.21
2023-05-18T20:05:13.043Z,23.13
2023-05-18T20:07:42.082Z,23.05
2023-05-18T20:10:12.674Z,22.99
2023-05-18T20:12:41.410Z,23.01
2023-05-18T20:15:11.504Z,23.01
2023-05-18T20:17:39.059Z,23.02
2023-05-18T20:20:06.794Z,23.00
2023-05-18T20:22:35.067Z,22.95
2023-05-18T20:25:10.358Z,22.93
2023-05-18T20:27:38.976Z,22.93
2023-05-18T20:30:08.046Z,22.94
2023-05-18T20:32:35.922Z,22.95
2023-05-18T20:35:06.573Z,22.99
2023-05-18T20:37:35.126Z,23.01
2023-05-18T20:40:07.494Z,22.96
2023-05-18T20:42:40.829Z,22.99
2023-05-18T20:45:12.862Z,22.97
2023-05-18T20:48:01.483Z,22.97
2023-05-18T20:50:32.092Z,23.01
2023-05-18T20:53:19.749Z,23.02
2023-05-18T20:55:48.433Z,23.03
2023-05-18T20:58:19.100Z,23.03
2023-05-18T21:00:49.618Z,23.02
2023-05-18T21:03:18.956Z,22.98
2023-05-18T21:05:50.221Z,22.91
2023-05-18T21:08:17.530Z,22.85
2023-05-18T21:10:45.811Z,22.78
2023-05-18T21:13:34.828Z,22.71
2023-05-18T21:16:08.661Z,22.61
2023-05-18T21:18:38.382Z,22.55
2023-05-18T21:21:06.948Z,22.50
2023-05-18T21:23:34.311Z,22.46
2023-05-18T21:26:01.936Z,22.38
2023-05-18T21:28:29.552Z,22.35
2023-05-18T21:30:56.851Z,22.26
2023-05-18T21:33:24.317Z,22.21
2023-05-18T21:35:51.746Z,22.15
2023-05-18T21:38:19.041Z,22.05
2023-05-18T21:40:47.035Z,21.95
2023-05-18T21:43:14.388Z,21.91
2023-05-18T21:45:41.976Z,21.89
2023-05-18T21:48:09.653Z,21.85
2023-05-18T21:50:37.022Z,21.80
2023-05-18T21:53:04.513Z,21.77
2023-05-18T21:55:32.773Z,21.77
2023-05-18T21:58:00.586Z,21.74
2023-05-18T22:00:28.899Z,21.76
2023-05-18T22:02:56.385Z,21.76
2023-05-18T22:05:23.795Z,21.72
2023-05-18T22:07:51.130Z,21.69
2023-05-18T22:10:18.559Z,21.68
2023-05-18T22:12:45.791Z,21.63
2023-05-18T22:15:12.931Z,21.59
2023-05-18T22:17:40.500Z,21.63
2023-05-18T22:20:11.696Z,21.66
2023-05-18T22:22:40.497Z,21.63
2023-05-18T22:25:08.021Z,21.58
2023-05-18T22:27:38.910Z,21.60
2023-05-18T22:30:06.953Z,21.59
2023-05-18T22:32:34.372Z,21.53
2023-05-18T22:35:01.945Z,21.45
2023-05-18T22:37:29.099Z,21.41
2023-05-18T22:39:56.101Z,21.37
2023-05-18T22:42:23.116Z,21.34
2023-05-18T22:44:50.371Z,21.31
2023-05-18T22:47:20.201Z,21.31
2023-05-18T22:49:47.791Z,21.29
2023-05-18T22:52:16.542Z,21.29
2023-05-18T22:54:43.695Z,21.28
2023-05-18T22:57:10.858Z,21.29
2023-05-18T22:59:38.022Z,21.31
2023-05-18T23:02:05.629Z,21.36
2023-05-18T23:04:33.228Z,21.39
2023-05-18T23:07:01.995Z,21.40
2023-05-18T23:09:30.759Z,21.39
2023-05-18T23:11:59.720Z,21.37
2023-05-18T23:14:32.635Z,21.38
2023-05-18T23:17:00.255Z,21.38
2023-05-18T23:19:27.491Z,21.42
2023-05-18T23:21:54.767Z,21.42
2023-05-18T23:24:21.913Z,21.42
2023-05-18T23:26:49.072Z,21.43
2023-05-18T23:29:16.155Z,21.44
2023-05-18T23:31:43.186Z,21.49
2023-05-18T23:34:10.523Z,21.46
2023-05-18T23:36:37.500Z,21.49
2023-05-18T23:39:04.817Z,21.53
2023-05-18T23:41:31.926Z,21.55
2023-05-18T23:43:59.083Z,21.56
2023-05-18T23:46:26.428Z,21.61
2023-05-18T23:48:53.845Z,21.71
2023-05-18T23:51:21.301Z,21.80
2023-05-18T23:53:48.898Z,21.85
2023-05-18T23:56:16.183Z,21.96
2023-05-18T23:58:44.054Z,22.10
